Moodys, Oklahoma
Current Conditions -  °F | °C
As of 7:35 PM on Sunday 23 Nov 2014 (Local Time) from KTQH Reporting Station
Overcast Overcast  
Wind Chill: 54°   Ceiling: 2200
Heat Index: 54°   Visibility: 10mi
Dew Point: 48°   Wind: 25mph
Humidity: 82%   Direction: 330°NNW
Pressure: 29.42"   Gusts: 33mph
Location:  36.03°N, 94.96°W
Report Text: KTQH 240135Z AUTO 33022G29KT 10SM SCT013 BKN022 OVC032 12/09 A2942 RMK AO2
Loading
Personal Weather Stations






























Interactive Weather Map New forecast layout! Learn more

10-Day Weather Forecast

Advertisements
Track Severe Weather on mobile